createdAt,value
2023-01-26T00:01:09.434Z,8.77
2023-01-26T00:03:36.207Z,9.20
2023-01-26T00:06:06.996Z,9.95
2023-01-26T00:08:37.587Z,8.88
2023-01-26T00:11:05.937Z,8.23
2023-01-26T00:13:33.211Z,9.15
2023-01-26T00:15:59.897Z,9.02
2023-01-26T00:18:26.389Z,7.88
2023-01-26T00:20:57.818Z,8.40
2023-01-26T00:23:24.824Z,8.50
2023-01-26T00:25:51.369Z,8.50
2023-01-26T00:28:17.820Z,8.50
2023-01-26T00:30:44.829Z,7.10
2023-01-26T00:33:11.334Z,9.05
2023-01-26T00:35:37.843Z,8.02
2023-01-26T00:38:04.841Z,7.97
2023-01-26T00:40:31.474Z,7.95
2023-01-26T00:42:59.248Z,7.63
2023-01-26T00:45:25.718Z,7.18
2023-01-26T00:47:52.180Z,7.63
2023-01-26T00:50:18.786Z,8.57
2023-01-26T00:52:45.263Z,8.30
2023-01-26T00:55:11.710Z,7.88
2023-01-26T00:57:40.802Z,8.27
2023-01-26T01:00:09.238Z,8.50
2023-01-26T01:02:35.913Z,7.30
2023-01-26T01:05:02.354Z,8.18
2023-01-26T01:07:28.802Z,8.13
2023-01-26T01:09:55.347Z,8.30
2023-01-26T01:12:21.811Z,7.95
2023-01-26T01:14:48.239Z,7.03
2023-01-26T01:17:14.698Z,7.53
2023-01-26T01:19:41.143Z,8.07
2023-01-26T01:22:07.636Z,6.88
2023-01-26T01:24:37.482Z,7.80
2023-01-26T01:27:04.285Z,7.40
2023-01-26T01:29:30.791Z,7.30
2023-01-26T01:31:58.011Z,7.88
2023-01-26T01:34:24.487Z,8.00
2023-01-26T01:36:50.975Z,8.27
2023-01-26T01:44:21.150Z,7.28
2023-01-26T01:47:04.063Z,6.82
2023-01-26T01:49:36.467Z,5.65
2023-01-26T01:52:12.685Z,7.25
2023-01-26T01:54:47.012Z,6.47
2023-01-26T01:57:17.581Z,7.20
2023-01-26T02:00:05.401Z,7.95
2023-01-26T02:02:40.420Z,6.82
2023-01-26T02:05:30.202Z,7.20
2023-01-26T02:07:57.006Z,6.97
2023-01-26T02:10:24.595Z,5.97
2023-01-26T02:12:56.662Z,6.25
2023-01-26T02:15:23.659Z,6.38
2023-01-26T02:17:54.476Z,7.75
2023-01-26T02:20:36.666Z,6.18
2023-01-26T02:23:37.109Z,7.05
2023-01-26T02:26:19.472Z,7.20
2023-01-26T02:28:46.807Z,6.18
2023-01-26T02:31:13.936Z,6.15
2023-01-26T02:33:42.415Z,6.57
2023-01-26T02:36:21.701Z,6.50
2023-01-26T02:38:51.338Z,6.90
2023-01-26T02:41:38.146Z,6.70
2023-01-26T02:44:08.544Z,6.47
2023-01-26T02:46:35.082Z,6.82
2023-01-26T02:49:21.338Z,7.03
2023-01-26T02:51:47.927Z,6.57
2023-01-26T02:54:35.527Z,7.10
2023-01-26T02:57:02.927Z,5.82
2023-01-26T02:59:29.432Z,6.97
2023-01-26T03:01:57.645Z,7.20
2023-01-26T03:04:24.420Z,6.00
2023-01-26T03:06:51.821Z,7.32
2023-01-26T03:09:18.460Z,6.78
2023-01-26T03:11:44.966Z,6.82
2023-01-26T03:14:13.388Z,7.10
2023-01-26T03:16:40.721Z,6.68
2023-01-26T03:19:10.640Z,7.32
2023-01-26T03:21:55.843Z,9.05
2023-01-26T03:24:40.772Z,8.82
2023-01-26T03:27:28.107Z,6.53
2023-01-26T03:29:58.721Z,6.47
2023-01-26T03:32:25.750Z,7.93
2023-01-26T03:34:53.559Z,9.30
2023-01-26T03:37:22.615Z,11.82
2023-01-26T03:40:23.562Z,8.20
2023-01-26T03:43:09.698Z,8.23
2023-01-26T03:45:54.712Z,7.57
2023-01-26T03:48:42.704Z,7.18
2023-01-26T03:51:28.017Z,7.82
2023-01-26T03:54:14.787Z,7.88
2023-01-26T03:56:41.304Z,8.57
2023-01-26T03:59:15.292Z,8.20
2023-01-26T04:02:05.257Z,8.27
2023-01-26T04:04:51.723Z,6.93
2023-01-26T04:07:40.160Z,8.52
2023-01-26T04:10:07.090Z,7.25
2023-01-26T04:12:34.135Z,7.32
2023-01-26T04:15:36.419Z,7.03
2023-01-26T04:18:26.228Z,8.63
2023-01-26T04:21:12.719Z,7.85
2023-01-26T04:23:41.559Z,7.45
2023-01-26T04:26:08.060Z,6.72
2023-01-26T04:28:35.973Z,6.75
2023-01-26T04:31:04.668Z,6.78
2023-01-26T04:33:34.597Z,6.88
2023-01-26T04:36:05.606Z,5.75
2023-01-26T04:38:33.534Z,7.00
2023-01-26T04:41:00.126Z,7.07
2023-01-26T04:43:27.634Z,7.47
2023-01-26T04:46:02.524Z,9.30
2023-01-26T04:48:30.568Z,8.48
2023-01-26T04:51:01.521Z,8.40
2023-01-26T04:53:28.543Z,7.85
2023-01-26T04:55:55.674Z,7.47
2023-01-26T04:58:22.172Z,7.65
2023-01-26T05:00:58.011Z,6.85
2023-01-26T05:03:26.154Z,8.27
2023-01-26T05:05:54.689Z,7.70
2023-01-26T05:08:23.835Z,8.20
2023-01-26T05:10:51.864Z,8.65
2023-01-26T05:13:44.369Z,7.47
2023-01-26T05:16:23.492Z,6.63
2023-01-26T05:19:19.098Z,6.80
2023-01-26T05:21:51.052Z,6.88
2023-01-26T05:24:17.545Z,6.55
2023-01-26T05:27:21.240Z,6.68
2023-01-26T05:29:58.867Z,6.28
2023-01-26T05:32:26.926Z,6.72
2023-01-26T05:34:53.518Z,7.15
2023-01-26T05:37:20.277Z,7.38
2023-01-26T05:39:46.873Z,7.25
2023-01-26T05:42:14.082Z,6.45
2023-01-26T05:44:58.853Z,6.50
2023-01-26T05:47:25.509Z,7.00
2023-01-26T05:49:52.141Z,7.40
2023-01-26T05:52:24.459Z,7.10
2023-01-26T05:54:51.223Z,6.40
2023-01-26T05:57:18.201Z,5.65
2023-01-26T05:59:51.856Z,6.15
2023-01-26T06:02:18.469Z,6.57
2023-01-26T06:04:45.360Z,7.32
2023-01-26T06:07:13.609Z,7.15
2023-01-26T06:09:47.757Z,6.00
2023-01-26T06:12:35.400Z,5.57
2023-01-26T06:15:11.055Z,5.22
2023-01-26T06:17:41.737Z,5.60
2023-01-26T06:20:14.663Z,5.70
2023-01-26T06:22:44.296Z,5.00
2023-01-26T06:25:10.787Z,5.43
2023-01-26T06:27:41.869Z,5.20
2023-01-26T06:30:15.451Z,5.30
2023-01-26T06:32:41.929Z,6.70
2023-01-26T06:35:08.686Z,6.70
2023-01-26T06:37:35.867Z,7.05
2023-01-26T06:40:02.584Z,7.28
2023-01-26T06:42:29.143Z,7.43
2023-01-26T06:44:57.482Z,7.43
2023-01-26T06:47:24.527Z,6.97
2023-01-26T06:49:51.452Z,7.63
2023-01-26T06:52:31.186Z,6.95
2023-01-26T06:55:03.717Z,6.72
2023-01-26T06:58:05.571Z,5.82
2023-01-26T07:00:50.915Z,6.80
2023-01-26T07:03:28.373Z,5.22
2023-01-26T07:05:54.820Z,4.95
2023-01-26T07:08:21.272Z,6.30
2023-01-26T07:10:49.567Z,10.25
2023-01-26T07:13:16.358Z,7.30
2023-01-26T07:15:42.859Z,8.02
2023-01-26T07:18:09.378Z,8.35
2023-01-26T07:20:36.976Z,5.30
2023-01-26T07:23:03.428Z,4.47
2023-01-26T07:25:29.897Z,4.05
2023-01-26T07:27:57.899Z,4.63
2023-01-26T07:30:24.545Z,6.25
2023-01-26T07:32:51.266Z,5.68
2023-01-26T07:35:18.210Z,4.38
2023-01-26T07:37:44.649Z,5.47
2023-01-26T07:40:11.863Z,4.40
2023-01-26T07:42:38.558Z,5.18
2023-01-26T07:45:17.985Z,5.93
2023-01-26T07:47:44.411Z,5.28
2023-01-26T07:50:12.260Z,5.88
2023-01-26T07:52:38.827Z,4.88
2023-01-26T07:55:05.660Z,4.13
2023-01-26T07:57:33.889Z,4.70
2023-01-26T08:00:00.363Z,4.70
2023-01-26T08:02:26.878Z,4.60
2023-01-26T08:04:53.356Z,4.32
2023-01-26T08:07:19.822Z,3.70
2023-01-26T08:09:46.291Z,3.63
2023-01-26T08:12:12.813Z,4.00
2023-01-26T08:14:46.834Z,3.53
2023-01-26T08:17:13.697Z,4.05
2023-01-26T08:19:40.190Z,3.17
2023-01-26T08:22:06.673Z,3.22
2023-01-26T08:24:33.147Z,2.90
2023-01-26T08:26:59.604Z,3.53
2023-01-26T08:29:26.111Z,3.22
2023-01-26T08:31:53.451Z,3.97
2023-01-26T08:34:22.446Z,4.72
2023-01-26T08:36:49.180Z,4.13
2023-01-26T08:39:15.804Z,4.65
2023-01-26T08:41:42.524Z,4.47
2023-01-26T08:44:10.416Z,4.25
2023-01-26T08:46:36.918Z,3.88
2023-01-26T08:49:03.416Z,3.75
2023-01-26T08:51:29.989Z,4.10
2023-01-26T08:53:56.559Z,3.78
2023-01-26T08:56:23.070Z,3.67
2023-01-26T08:58:49.558Z,5.05
2023-01-26T09:01:17.223Z,3.97
2023-01-26T09:03:44.829Z,4.13
2023-01-26T09:06:13.629Z,5.40
2023-01-26T09:08:40.398Z,4.57
2023-01-26T09:11:08.075Z,3.78
2023-01-26T09:13:35.299Z,3.38
2023-01-26T09:16:13.018Z,3.53
2023-01-26T09:18:39.508Z,3.50
2023-01-26T09:21:07.398Z,3.58
2023-01-26T09:23:34.784Z,3.22
2023-01-26T09:26:02.619Z,3.25
2023-01-26T09:28:29.588Z,3.13
2023-01-26T09:30:56.284Z,3.90
2023-01-26T09:33:22.957Z,3.90
2023-01-26T09:35:49.979Z,3.67
2023-01-26T09:38:16.470Z,3.67
2023-01-26T09:41:04.133Z,4.00
2023-01-26T09:43:36.614Z,4.38
2023-01-26T09:46:23.014Z,4.63
2023-01-26T09:49:20.076Z,4.95
2023-01-26T09:52:00.518Z,4.30
2023-01-26T09:54:48.897Z,6.03
2023-01-26T09:57:37.809Z,5.15
2023-01-26T10:00:11.320Z,4.63
2023-01-26T10:03:15.315Z,5.65
2023-01-26T10:05:49.578Z,4.45
2023-01-26T10:08:36.090Z,3.85
2023-01-26T10:11:07.627Z,4.80
2023-01-26T10:13:34.347Z,4.63
2023-01-26T10:16:06.615Z,4.35
2023-01-26T10:18:41.117Z,4.40
2023-01-26T10:21:10.169Z,4.82
2023-01-26T10:23:36.775Z,5.80
2023-01-26T10:26:15.199Z,5.25
2023-01-26T10:28:43.739Z,4.78
2023-01-26T10:31:17.530Z,5.22
2023-01-26T10:33:56.572Z,5.38
2023-01-26T10:36:23.687Z,5.15
2023-01-26T10:38:52.023Z,4.65
2023-01-26T10:41:23.892Z,4.80
2023-01-26T10:43:52.722Z,5.32
2023-01-26T10:46:24.940Z,4.45
2023-01-26T10:48:53.907Z,4.18
2023-01-26T10:51:26.550Z,3.83
2023-01-26T10:54:15.509Z,4.25
2023-01-26T10:56:48.336Z,4.57
2023-01-26T10:59:27.356Z,3.88
2023-01-26T11:02:00.186Z,4.70
2023-01-26T11:04:27.132Z,3.50
2023-01-26T11:06:54.905Z,4.38
2023-01-26T11:09:28.891Z,3.97
2023-01-26T11:12:00.645Z,4.78
2023-01-26T11:14:28.224Z,4.53
2023-01-26T11:17:17.380Z,4.70
2023-01-26T11:20:24.105Z,4.90
2023-01-26T11:23:12.745Z,4.13
2023-01-26T11:25:57.636Z,4.22
2023-01-26T11:29:01.676Z,4.30
2023-01-26T11:31:52.575Z,4.55
2023-01-26T11:34:35.088Z,4.90
2023-01-26T11:37:22.678Z,4.05
2023-01-26T11:40:13.560Z,4.40
2023-01-26T11:43:08.398Z,4.57
2023-01-26T11:46:08.206Z,4.22
2023-01-26T11:48:48.380Z,3.75
2023-01-26T11:51:28.657Z,4.45
2023-01-26T11:54:02.857Z,4.07
2023-01-26T11:56:50.065Z,4.13
2023-01-26T11:59:30.231Z,3.80
2023-01-26T12:02:04.118Z,4.82
2023-01-26T12:04:35.746Z,3.95
2023-01-26T12:07:15.956Z,3.80
2023-01-26T12:09:48.273Z,4.20
2023-01-26T12:12:23.233Z,4.40
2023-01-26T12:15:00.710Z,4.90
2023-01-26T12:17:43.208Z,5.35
2023-01-26T12:20:27.223Z,4.93
2023-01-26T12:23:06.145Z,4.45
2023-01-26T12:25:34.817Z,5.13
2023-01-26T12:28:23.437Z,4.38
2023-01-26T12:30:58.779Z,4.90
2023-01-26T12:33:25.977Z,5.30
2023-01-26T12:36:30.922Z,4.85
2023-01-26T12:39:33.492Z,4.45
2023-01-26T12:42:37.541Z,3.85
2023-01-26T12:45:12.553Z,4.47
2023-01-26T12:47:55.518Z,4.20
2023-01-26T12:50:31.627Z,4.30
2023-01-26T12:53:07.481Z,3.58
2023-01-26T12:55:49.042Z,3.85
2023-01-26T12:58:25.271Z,4.43
2023-01-26T13:01:17.062Z,4.28
2023-01-26T13:03:50.621Z,5.15
2023-01-26T13:06:17.020Z,4.97
2023-01-26T13:08:53.619Z,4.75
2023-01-26T13:11:43.217Z,5.18
2023-01-26T13:14:38.745Z,5.07
2023-01-26T13:17:17.305Z,5.30
2023-01-26T13:19:43.833Z,5.38
2023-01-26T13:22:19.422Z,5.70
2023-01-26T13:24:48.811Z,7.30
2023-01-26T13:27:32.256Z,8.45
2023-01-26T13:29:59.627Z,6.70
2023-01-26T13:32:25.981Z,5.85
2023-01-26T13:35:02.597Z,5.90
2023-01-26T13:37:35.924Z,5.65
2023-01-26T13:40:26.458Z,5.15
2023-01-26T13:43:26.303Z,5.55
2023-01-26T13:46:08.792Z,5.45
2023-01-26T13:48:55.252Z,5.25
2023-01-26T13:51:30.814Z,7.05
2023-01-26T13:54:11.682Z,6.10
2023-01-26T13:56:43.009Z,5.32
2023-01-26T13:59:17.359Z,5.78
2023-01-26T14:01:46.437Z,5.38
2023-01-26T14:04:32.536Z,6.80
2023-01-26T14:07:10.006Z,6.13
2023-01-26T14:09:49.845Z,5.72
2023-01-26T14:12:25.039Z,5.57
2023-01-26T14:14:54.957Z,5.90
2023-01-26T14:17:33.157Z,5.70
2023-01-26T14:20:00.891Z,6.40
2023-01-26T14:22:28.014Z,5.93
2023-01-26T14:24:54.893Z,5.97
2023-01-26T14:27:38.838Z,6.40
2023-01-26T14:30:22.883Z,6.22
2023-01-26T14:32:54.150Z,6.65
2023-01-26T14:35:23.306Z,6.93
2023-01-26T14:37:50.600Z,6.15
2023-01-26T14:40:24.041Z,5.80
2023-01-26T14:42:53.531Z,5.28
2023-01-26T14:45:30.927Z,4.60
2023-01-26T14:48:05.710Z,5.13
2023-01-26T14:50:32.662Z,6.70
2023-01-26T14:53:01.310Z,5.63
2023-01-26T14:55:34.880Z,11.00
2023-01-26T14:58:03.672Z,8.38
2023-01-26T15:00:35.124Z,7.97
2023-01-26T15:03:21.192Z,7.90
2023-01-26T15:05:47.675Z,6.13
2023-01-26T15:08:23.669Z,6.53
2023-01-26T15:10:50.095Z,5.97
2023-01-26T15:13:16.452Z,5.90
2023-01-26T15:15:48.960Z,6.55
2023-01-26T15:18:21.709Z,5.50
2023-01-26T15:21:01.579Z,6.18
2023-01-26T15:23:34.505Z,5.90
2023-01-26T15:26:08.959Z,5.95
2023-01-26T15:28:36.112Z,6.07
2023-01-26T15:31:03.140Z,5.65
2023-01-26T15:33:39.933Z,6.38
2023-01-26T15:36:20.497Z,5.68
2023-01-26T15:38:47.327Z,6.10
2023-01-26T15:41:14.522Z,6.40
2023-01-26T15:43:40.971Z,6.93
2023-01-26T15:46:10.031Z,6.88
2023-01-26T15:48:36.506Z,6.55
2023-01-26T15:51:03.175Z,6.68
2023-01-26T15:53:29.621Z,6.85
2023-01-26T15:55:58.461Z,6.88
2023-01-26T15:58:25.847Z,7.15
2023-01-26T16:00:53.308Z,5.88
2023-01-26T16:03:21.137Z,6.18
2023-01-26T16:05:48.257Z,5.68
2023-01-26T16:08:16.282Z,6.03
2023-01-26T16:10:43.192Z,5.72
2023-01-26T16:13:11.379Z,5.72
2023-01-26T16:15:48.288Z,5.60
2023-01-26T16:18:15.589Z,6.03
2023-01-26T16:20:43.739Z,21.92
2023-01-26T16:23:19.566Z,16.05
2023-01-26T16:25:46.922Z,7.95
2023-01-26T16:28:13.975Z,10.40
2023-01-26T16:30:42.284Z,10.55
2023-01-26T16:33:12.354Z,12.38
2023-01-26T16:35:39.183Z,13.80
2023-01-26T16:38:07.361Z,7.55
2023-01-26T16:40:34.300Z,6.45
2023-01-26T16:43:01.852Z,8.00
2023-01-26T16:45:28.564Z,6.78
2023-01-26T16:47:57.239Z,6.03
2023-01-26T16:50:25.163Z,5.55
2023-01-26T16:52:52.655Z,5.20
2023-01-26T16:55:19.436Z,6.57
2023-01-26T16:57:49.182Z,4.90
2023-01-26T17:00:18.519Z,6.22
2023-01-26T17:02:49.136Z,8.45
2023-01-26T17:05:18.733Z,5.82
2023-01-26T17:07:45.555Z,5.75
2023-01-26T17:10:14.564Z,7.85
2023-01-26T17:12:41.498Z,6.90
2023-01-26T17:15:10.914Z,6.53
2023-01-26T17:17:37.863Z,7.20
2023-01-26T17:20:20.009Z,8.00
2023-01-26T17:22:47.331Z,6.57
2023-01-26T17:25:16.725Z,6.75
2023-01-26T17:27:44.688Z,6.85
2023-01-26T17:30:11.747Z,7.78
2023-01-26T17:32:38.355Z,9.15
2023-01-26T17:35:05.286Z,7.05
2023-01-26T17:37:31.936Z,8.15
2023-01-26T17:39:58.673Z,8.48
2023-01-26T17:42:25.825Z,7.80
2023-01-26T17:44:52.764Z,7.30
2023-01-26T17:47:19.421Z,7.25
2023-01-26T17:49:46.093Z,8.88
2023-01-26T17:52:14.420Z,7.78
2023-01-26T17:54:41.399Z,7.82
2023-01-26T17:57:08.319Z,8.57
2023-01-26T17:59:35.074Z,6.15
2023-01-26T18:02:01.616Z,6.20
2023-01-26T18:04:29.796Z,6.72
2023-01-26T18:06:57.592Z,7.35
2023-01-26T18:09:24.027Z,6.53
2023-01-26T18:11:50.518Z,6.15
2023-01-26T18:14:16.958Z,6.65
2023-01-26T18:16:43.485Z,6.53
2023-01-26T18:19:10.045Z,6.78
2023-01-26T18:21:36.884Z,5.47
2023-01-26T18:24:05.585Z,6.78
2023-01-26T18:26:36.550Z,16.35
2023-01-26T18:29:05.283Z,13.65
2023-01-26T18:31:34.531Z,9.73
2023-01-26T18:34:01.917Z,29.10
2023-01-26T18:36:28.725Z,13.02
2023-01-26T18:39:00.541Z,9.77
2023-01-26T18:41:30.353Z,12.77
2023-01-26T18:43:58.432Z,10.25
2023-01-26T18:46:26.591Z,35.55
2023-01-26T18:49:00.610Z,12.02
2023-01-26T18:51:29.990Z,9.60
2023-01-26T18:53:57.265Z,7.70
2023-01-26T18:56:23.793Z,7.55
2023-01-26T18:58:53.844Z,8.43
2023-01-26T19:01:21.668Z,7.72
2023-01-26T19:03:54.203Z,8.43
2023-01-26T19:06:22.527Z,8.07
2023-01-26T19:08:58.844Z,8.10
2023-01-26T19:13:54.701Z,6.97
2023-01-26T19:16:21.377Z,7.82
2023-01-26T19:18:48.199Z,8.13
2023-01-26T19:21:14.846Z,8.45
2023-01-26T19:23:42.722Z,8.88
2023-01-26T19:26:14.487Z,9.55
2023-01-26T19:28:42.013Z,10.40
2023-01-26T19:31:10.239Z,10.52
2023-01-26T19:33:36.954Z,8.40
2023-01-26T19:36:05.470Z,8.90
2023-01-26T19:38:33.251Z,8.95
2023-01-26T19:41:01.765Z,10.95
2023-01-26T19:43:28.716Z,10.27
2023-01-26T19:45:56.727Z,14.13
2023-01-26T19:48:26.194Z,12.07
2023-01-26T19:51:04.718Z,9.35
2023-01-26T19:53:32.838Z,16.45
2023-01-26T19:56:04.653Z,13.48
2023-01-26T19:58:31.187Z,9.75
2023-01-26T20:01:02.871Z,10.27
2023-01-26T20:03:29.581Z,9.98
2023-01-26T20:05:56.170Z,9.27
2023-01-26T20:08:23.061Z,9.68
2023-01-26T20:10:50.820Z,8.98
2023-01-26T20:13:17.359Z,10.98
2023-01-26T20:15:44.093Z,8.35
2023-01-26T20:18:10.701Z,7.30
2023-01-26T20:20:37.302Z,8.45
2023-01-26T20:23:03.987Z,8.38
2023-01-26T20:25:30.672Z,9.32
2023-01-26T20:27:57.162Z,8.27
2023-01-26T20:30:23.616Z,9.40
2023-01-26T20:32:53.792Z,8.27
2023-01-26T20:35:20.309Z,9.80
2023-01-26T20:37:46.799Z,8.82
2023-01-26T20:40:13.887Z,8.05
2023-01-26T20:42:40.604Z,9.07
2023-01-26T20:45:07.351Z,7.80
2023-01-26T20:47:36.691Z,8.73
2023-01-26T20:50:03.262Z,7.97
2023-01-26T20:52:30.471Z,8.43
2023-01-26T20:54:57.450Z,7.93
2023-01-26T20:57:23.902Z,7.85
2023-01-26T20:59:50.398Z,7.68
2023-01-26T21:02:16.971Z,6.30
2023-01-26T21:04:43.495Z,6.70
2023-01-26T21:07:10.189Z,6.35
2023-01-26T21:09:36.932Z,6.20
2023-01-26T21:12:03.670Z,7.03
2023-01-26T21:14:30.223Z,6.60
2023-01-26T21:16:57.312Z,7.65
2023-01-26T21:19:24.012Z,7.88
2023-01-26T21:21:50.504Z,7.55
2023-01-26T21:24:17.072Z,6.45
2023-01-26T21:26:43.593Z,7.35
2023-01-26T21:29:14.749Z,7.22
2023-01-26T21:31:41.239Z,6.15
2023-01-26T21:34:09.520Z,6.80
2023-01-26T21:36:36.486Z,7.57
2023-01-26T21:39:03.679Z,6.15
2023-01-26T21:41:52.074Z,6.90
2023-01-26T21:44:21.364Z,6.40
2023-01-26T21:46:50.301Z,6.18
2023-01-26T21:49:17.063Z,6.13
2023-01-26T21:52:02.452Z,6.47
2023-01-26T21:54:29.988Z,5.20
2023-01-26T21:56:57.908Z,6.57
2023-01-26T21:59:24.513Z,5.75
2023-01-26T22:01:54.320Z,5.50
2023-01-26T22:04:24.180Z,5.80
2023-01-26T22:06:52.016Z,5.57
2023-01-26T22:09:19.479Z,5.15
2023-01-26T22:11:45.978Z,4.85
2023-01-26T22:14:18.377Z,5.65
2023-01-26T22:16:45.052Z,5.25
2023-01-26T22:19:12.561Z,5.93
2023-01-26T22:21:40.196Z,5.88
2023-01-26T22:24:11.306Z,6.57
2023-01-26T22:26:38.405Z,6.40
2023-01-26T22:29:05.390Z,6.55
2023-01-26T22:31:33.288Z,5.78
2023-01-26T22:34:00.478Z,5.63
2023-01-26T22:36:27.821Z,6.55
2023-01-26T22:38:54.482Z,6.78
2023-01-26T22:41:26.777Z,5.97
2023-01-26T22:43:55.199Z,6.03
2023-01-26T22:46:23.890Z,5.75
2023-01-26T22:48:51.075Z,5.88
2023-01-26T22:51:22.750Z,7.05
2023-01-26T22:53:50.822Z,5.53
2023-01-26T22:56:17.868Z,5.75
2023-01-26T22:58:57.488Z,6.20
2023-01-26T23:01:28.027Z,5.95
2023-01-26T23:03:55.463Z,6.55
2023-01-26T23:06:22.144Z,6.30
2023-01-26T23:08:48.714Z,6.53
2023-01-26T23:11:24.592Z,6.43
2023-01-26T23:13:53.269Z,5.13
2023-01-26T23:16:22.802Z,5.65
2023-01-26T23:18:50.042Z,6.45
2023-01-26T23:21:16.743Z,5.03
2023-01-26T23:23:43.248Z,5.13
2023-01-26T23:26:09.991Z,6.07
2023-01-26T23:28:39.026Z,5.03
2023-01-26T23:31:06.680Z,5.60
2023-01-26T23:33:34.360Z,6.03
2023-01-26T23:36:01.324Z,5.38
2023-01-26T23:38:29.436Z,5.07
2023-01-26T23:40:56.332Z,4.85
2023-01-26T23:43:23.718Z,4.85
2023-01-26T23:45:50.978Z,4.60
2023-01-26T23:48:18.609Z,4.40
2023-01-26T23:50:45.143Z,4.55
2023-01-26T23:53:12.284Z,5.00
2023-01-26T23:55:43.464Z,4.40
2023-01-26T23:58:11.214Z,5.45
